sensor_id;sensor_type;location;lat;lon;timestamp;P1;durP1;ratioP1;P2;durP2;ratioP2
75798;SDS011;65035;44.726;37.764;2022-12-07T00:00:43;1.27;;;0.22;;
75798;SDS011;65035;44.726;37.764;2022-12-07T00:01:46;1.20;;;0.10;;
75798;SDS011;65035;44.726;37.764;2022-12-07T00:02:49;1.35;;;0.25;;
75798;SDS011;65035;44.726;37.764;2022-12-07T00:03:53;1.35;;;0.35;;
75798;SDS011;65035;44.726;37.764;2022-12-07T00:05:56;1.50;;;1.35;;
75798;SDS011;65035;44.726;37.764;2022-12-07T00:07:00;1.63;;;1.23;;
75798;SDS011;65035;44.726;37.764;2022-12-07T00:08:03;1.70;;;1.60;;
75798;SDS011;65035;44.726;37.764;2022-12-07T00:09:07;1.55;;;1.45;;
75798;SDS011;65035;44.726;37.764;2022-12-07T00:10:12;1.52;;;1.42;;
75798;SDS011;65035;44.726;37.764;2022-12-07T00:11:19;1.50;;;1.30;;
75798;SDS011;65035;44.726;37.764;2022-12-07T00:12:23;1.48;;;1.25;;
75798;SDS011;65035;44.726;37.764;2022-12-07T00:13:26;2.03;;;1.52;;
75798;SDS011;65035;44.726;37.764;2022-12-07T00:14:28;1.88;;;1.20;;
75798;SDS011;65035;44.726;37.764;2022-12-07T00:15:41;1.33;;;1.17;;
75798;SDS011;65035;44.726;37.764;2022-12-07T00:16:51;1.30;;;1.20;;
75798;SDS011;65035;44.726;37.764;2022-12-07T00:17:57;1.55;;;1.45;;
75798;SDS011;65035;44.726;37.764;2022-12-07T00:19:09;1.95;;;1.85;;
75798;SDS011;65035;44.726;37.764;2022-12-07T00:20:18;1.55;;;1.45;;
75798;SDS011;65035;44.726;37.764;2022-12-07T00:21:42;1.67;;;1.58;;
75798;SDS011;65035;44.726;37.764;2022-12-07T00:22:54;1.63;;;1.45;;
75798;SDS011;65035;44.726;37.764;2022-12-07T00:24:02;1.10;;;0.95;;
75798;SDS011;65035;44.726;37.764;2022-12-07T00:25:16;1.25;;;1.15;;
75798;SDS011;65035;44.726;37.764;2022-12-07T00:26:27;1.60;;;1.05;;
75798;SDS011;65035;44.726;37.764;2022-12-07T00:27:44;1.83;;;0.90;;
75798;SDS011;65035;44.726;37.764;2022-12-07T00:28:52;1.48;;;0.80;;
75798;SDS011;65035;44.726;37.764;2022-12-07T00:29:58;1.33;;;1.23;;
75798;SDS011;65035;44.726;37.764;2022-12-07T00:31:26;1.33;;;1.13;;
75798;SDS011;65035;44.726;37.764;2022-12-07T00:32:31;1.75;;;1.40;;
75798;SDS011;65035;44.726;37.764;2022-12-07T00:33:34;1.60;;;1.50;;
75798;SDS011;65035;44.726;37.764;2022-12-07T00:34:39;1.25;;;1.13;;
75798;SDS011;65035;44.726;37.764;2022-12-07T00:35:42;1.20;;;0.93;;
75798;SDS011;65035;44.726;37.764;2022-12-07T00:36:45;1.45;;;1.35;;
75798;SDS011;65035;44.726;37.764;2022-12-07T00:37:48;1.48;;;1.35;;
75798;SDS011;65035;44.726;37.764;2022-12-07T00:38:51;1.30;;;1.13;;
75798;SDS011;65035;44.726;37.764;2022-12-07T00:39:54;1.67;;;1.58;;
75798;SDS011;65035;44.726;37.764;2022-12-07T00:40:57;1.52;;;1.38;;
75798;SDS011;65035;44.726;37.764;2022-12-07T00:42:01;1.10;;;1.00;;
75798;SDS011;65035;44.726;37.764;2022-12-07T00:43:04;1.35;;;1.23;;
75798;SDS011;65035;44.726;37.764;2022-12-07T00:44:07;1.17;;;1.02;;
75798;SDS011;65035;44.726;37.764;2022-12-07T00:45:10;1.70;;;1.45;;
75798;SDS011;65035;44.726;37.764;2022-12-07T00:46:13;1.08;;;0.68;;
75798;SDS011;65035;44.726;37.764;2022-12-07T00:47:17;1.33;;;1.23;;
75798;SDS011;65035;44.726;37.764;2022-12-07T00:48:20;1.40;;;1.30;;
75798;SDS011;65035;44.726;37.764;2022-12-07T00:49:25;1.13;;;1.02;;
75798;SDS011;65035;44.726;37.764;2022-12-07T00:50:28;1.77;;;1.17;;
75798;SDS011;65035;44.726;37.764;2022-12-07T00:51:31;1.27;;;0.88;;
75798;SDS011;65035;44.726;37.764;2022-12-07T00:52:34;1.75;;;1.55;;
75798;SDS011;65035;44.726;37.764;2022-12-07T00:53:37;1.63;;;1.52;;
75798;SDS011;65035;44.726;37.764;2022-12-07T00:55:00;1.60;;;1.50;;
75798;SDS011;65035;44.726;37.764;2022-12-07T00:56:26;1.38;;;1.27;;
75798;SDS011;65035;44.726;37.764;2022-12-07T00:57:29;2.20;;;1.58;;
75798;SDS011;65035;44.726;37.764;2022-12-07T00:58:33;1.67;;;1.58;;
75798;SDS011;65035;44.726;37.764;2022-12-07T00:59:36;1.83;;;1.73;;
75798;SDS011;65035;44.726;37.764;2022-12-07T01:00:39;1.42;;;1.33;;
75798;SDS011;65035;44.726;37.764;2022-12-07T01:01:43;1.83;;;1.73;;
75798;SDS011;65035;44.726;37.764;2022-12-07T01:02:46;1.48;;;1.38;;
75798;SDS011;65035;44.726;37.764;2022-12-07T01:03:49;1.50;;;1.40;;
75798;SDS011;65035;44.726;37.764;2022-12-07T01:04:52;1.58;;;1.42;;
75798;SDS011;65035;44.726;37.764;2022-12-07T01:05:55;1.38;;;1.13;;
75798;SDS011;65035;44.726;37.764;2022-12-07T01:06:59;1.38;;;1.27;;
75798;SDS011;65035;44.726;37.764;2022-12-07T01:08:01;1.77;;;1.67;;
75798;SDS011;65035;44.726;37.764;2022-12-07T01:09:05;1.33;;;1.23;;
75798;SDS011;65035;44.726;37.764;2022-12-07T01:10:08;0.95;;;0.90;;
75798;SDS011;65035;44.726;37.764;2022-12-07T01:11:59;1.00;;;0.17;;
75798;SDS011;65035;44.726;37.764;2022-12-07T01:13:02;1.73;;;1.15;;
75798;SDS011;65035;44.726;37.764;2022-12-07T01:14:05;0.88;;;0.10;;
75798;SDS011;65035;44.726;37.764;2022-12-07T01:15:08;0.75;;;0.10;;
75798;SDS011;65035;44.726;37.764;2022-12-07T01:16:12;1.55;;;0.10;;
75798;SDS011;65035;44.726;37.764;2022-12-07T01:17:17;0.70;;;0.03;;
75798;SDS011;65035;44.726;37.764;2022-12-07T01:18:20;0.95;;;0.20;;
75798;SDS011;65035;44.726;37.764;2022-12-07T01:19:23;0.80;;;0.28;;
75798;SDS011;65035;44.726;37.764;2022-12-07T01:20:25;0.85;;;0.20;;
75798;SDS011;65035;44.726;37.764;2022-12-07T01:21:29;1.00;;;0.15;;
75798;SDS011;65035;44.726;37.764;2022-12-07T01:22:38;0.65;;;0.00;;
75798;SDS011;65035;44.726;37.764;2022-12-07T01:23:42;0.65;;;0.03;;
75798;SDS011;65035;44.726;37.764;2022-12-07T01:25:56;0.75;;;0.20;;
75798;SDS011;65035;44.726;37.764;2022-12-07T01:27:00;0.80;;;0.10;;
75798;SDS011;65035;44.726;37.764;2022-12-07T01:28:03;0.63;;;0.10;;
75798;SDS011;65035;44.726;37.764;2022-12-07T01:29:06;1.08;;;0.08;;
75798;SDS011;65035;44.726;37.764;2022-12-07T01:30:09;1.00;;;0.17;;
75798;SDS011;65035;44.726;37.764;2022-12-07T01:31:14;0.70;;;0.10;;
75798;SDS011;65035;44.726;37.764;2022-12-07T01:32:18;1.08;;;0.10;;
75798;SDS011;65035;44.726;37.764;2022-12-07T01:33:21;0.80;;;0.20;;
75798;SDS011;65035;44.726;37.764;2022-12-07T01:34:24;0.60;;;0.10;;
75798;SDS011;65035;44.726;37.764;2022-12-07T01:35:27;1.00;;;0.10;;
75798;SDS011;65035;44.726;37.764;2022-12-07T01:36:31;0.45;;;0.00;;
75798;SDS011;65035;44.726;37.764;2022-12-07T01:38:25;0.60;;;0.10;;
75798;SDS011;65035;44.726;37.764;2022-12-07T01:40:17;1.17;;;0.40;;
75798;SDS011;65035;44.726;37.764;2022-12-07T01:42:23;0.60;;;0.20;;
75798;SDS011;65035;44.726;37.764;2022-12-07T01:43:26;0.70;;;0.20;;
75798;SDS011;65035;44.726;37.764;2022-12-07T01:44:31;1.08;;;0.20;;
75798;SDS011;65035;44.726;37.764;2022-12-07T01:45:39;0.90;;;0.20;;
75798;SDS011;65035;44.726;37.764;2022-12-07T01:46:56;1.00;;;0.10;;
75798;SDS011;65035;44.726;37.764;2022-12-07T01:48:02;0.90;;;0.20;;
75798;SDS011;65035;44.726;37.764;2022-12-07T01:49:08;1.13;;;0.20;;
75798;SDS011;65035;44.726;37.764;2022-12-07T01:50:16;0.70;;;0.35;;
75798;SDS011;65035;44.726;37.764;2022-12-07T01:51:19;0.73;;;0.10;;
75798;SDS011;65035;44.726;37.764;2022-12-07T01:52:24;0.95;;;0.28;;
75798;SDS011;65035;44.726;37.764;2022-12-07T01:53:30;0.77;;;0.10;;
75798;SDS011;65035;44.726;37.764;2022-12-07T01:54:37;0.60;;;0.40;;
75798;SDS011;65035;44.726;37.764;2022-12-07T01:55:42;0.38;;;0.20;;
75798;SDS011;65035;44.726;37.764;2022-12-07T01:56:48;1.17;;;0.52;;
75798;SDS011;65035;44.726;37.764;2022-12-07T01:57:55;0.73;;;0.25;;
75798;SDS011;65035;44.726;37.764;2022-12-07T01:58:58;0.80;;;0.17;;
75798;SDS011;65035;44.726;37.764;2022-12-07T02:00:03;0.70;;;0.28;;
75798;SDS011;65035;44.726;37.764;2022-12-07T02:01:14;0.85;;;0.10;;
75798;SDS011;65035;44.726;37.764;2022-12-07T02:02:20;0.82;;;0.10;;
75798;SDS011;65035;44.726;37.764;2022-12-07T02:03:32;0.85;;;0.30;;
75798;SDS011;65035;44.726;37.764;2022-12-07T02:05:32;1.05;;;0.22;;
75798;SDS011;65035;44.726;37.764;2022-12-07T02:06:38;1.42;;;0.57;;
75798;SDS011;65035;44.726;37.764;2022-12-07T02:07:40;1.13;;;0.43;;
75798;SDS011;65035;44.726;37.764;2022-12-07T02:08:44;0.63;;;0.28;;
75798;SDS011;65035;44.726;37.764;2022-12-07T02:09:48;0.60;;;0.22;;
75798;SDS011;65035;44.726;37.764;2022-12-07T02:10:51;1.00;;;0.50;;
75798;SDS011;65035;44.726;37.764;2022-12-07T02:11:59;1.17;;;0.15;;
75798;SDS011;65035;44.726;37.764;2022-12-07T02:13:04;0.70;;;0.15;;
75798;SDS011;65035;44.726;37.764;2022-12-07T02:14:12;0.88;;;0.10;;
75798;SDS011;65035;44.726;37.764;2022-12-07T02:15:15;0.95;;;0.30;;
75798;SDS011;65035;44.726;37.764;2022-12-07T02:17:52;0.90;;;0.05;;
75798;SDS011;65035;44.726;37.764;2022-12-07T02:20:29;0.80;;;0.05;;
75798;SDS011;65035;44.726;37.764;2022-12-07T02:21:39;0.82;;;0.25;;
75798;SDS011;65035;44.726;37.764;2022-12-07T02:24:48;0.60;;;0.43;;
75798;SDS011;65035;44.726;37.764;2022-12-07T02:28:56;0.60;;;0.08;;
75798;SDS011;65035;44.726;37.764;2022-12-07T02:30:09;0.90;;;0.35;;
75798;SDS011;65035;44.726;37.764;2022-12-07T02:31:15;0.70;;;0.10;;
75798;SDS011;65035;44.726;37.764;2022-12-07T02:32:23;0.90;;;0.13;;
75798;SDS011;65035;44.726;37.764;2022-12-07T02:34:33;0.45;;;0.03;;
75798;SDS011;65035;44.726;37.764;2022-12-07T02:35:14;1.10;;;0.05;;
75798;SDS011;65035;44.726;37.764;2022-12-07T02:36:28;0.70;;;0.15;;
75798;SDS011;65035;44.726;37.764;2022-12-07T02:38:43;1.00;;;0.85;;
75798;SDS011;65035;44.726;37.764;2022-12-07T02:41:41;1.30;;;1.20;;
75798;SDS011;65035;44.726;37.764;2022-12-07T02:42:50;1.00;;;0.70;;
75798;SDS011;65035;44.726;37.764;2022-12-07T02:44:01;0.82;;;0.05;;
75798;SDS011;65035;44.726;37.764;2022-12-07T02:45:09;0.80;;;0.50;;
75798;SDS011;65035;44.726;37.764;2022-12-07T02:46:20;0.57;;;0.00;;
75798;SDS011;65035;44.726;37.764;2022-12-07T02:47:39;0.73;;;0.10;;
75798;SDS011;65035;44.726;37.764;2022-12-07T02:48:43;1.02;;;0.32;;
75798;SDS011;65035;44.726;37.764;2022-12-07T02:49:48;0.77;;;0.10;;
75798;SDS011;65035;44.726;37.764;2022-12-07T02:50:53;1.05;;;0.10;;
75798;SDS011;65035;44.726;37.764;2022-12-07T02:51:57;0.40;;;0.03;;
75798;SDS011;65035;44.726;37.764;2022-12-07T02:53:00;0.60;;;0.38;;
75798;SDS011;65035;44.726;37.764;2022-12-07T02:54:07;0.70;;;0.00;;
75798;SDS011;65035;44.726;37.764;2022-12-07T02:55:16;0.93;;;0.25;;
75798;SDS011;65035;44.726;37.764;2022-12-07T03:00:17;1.42;;;0.13;;
75798;SDS011;65035;44.726;37.764;2022-12-07T03:01:26;0.43;;;0.08;;
75798;SDS011;65035;44.726;37.764;2022-12-07T03:04:02;1.02;;;0.93;;
75798;SDS011;65035;44.726;37.764;2022-12-07T03:06:31;0.85;;;0.10;;
75798;SDS011;65035;44.726;37.764;2022-12-07T03:07:39;0.70;;;0.15;;
75798;SDS011;65035;44.726;37.764;2022-12-07T03:08:57;0.50;;;0.03;;
75798;SDS011;65035;44.726;37.764;2022-12-07T03:11:48;1.02;;;0.47;;
75798;SDS011;65035;44.726;37.764;2022-12-07T03:14:25;1.27;;;1.17;;
75798;SDS011;65035;44.726;37.764;2022-12-07T03:15:40;0.63;;;0.35;;
75798;SDS011;65035;44.726;37.764;2022-12-07T03:18:07;0.50;;;0.03;;
75798;SDS011;65035;44.726;37.764;2022-12-07T03:19:15;0.88;;;0.50;;
75798;SDS011;65035;44.726;37.764;2022-12-07T03:20:20;0.82;;;0.25;;
75798;SDS011;65035;44.726;37.764;2022-12-07T03:21:27;0.55;;;0.00;;
75798;SDS011;65035;44.726;37.764;2022-12-07T03:22:59;1.25;;;0.13;;
75798;SDS011;65035;44.726;37.764;2022-12-07T03:24:03;0.93;;;0.70;;
75798;SDS011;65035;44.726;37.764;2022-12-07T03:25:11;0.57;;;0.28;;
75798;SDS011;65035;44.726;37.764;2022-12-07T03:26:17;0.80;;;0.50;;
75798;SDS011;65035;44.726;37.764;2022-12-07T03:28:31;0.55;;;0.25;;
75798;SDS011;65035;44.726;37.764;2022-12-07T03:29:40;1.10;;;1.00;;
75798;SDS011;65035;44.726;37.764;2022-12-07T03:30:52;0.60;;;0.05;;
75798;SDS011;65035;44.726;37.764;2022-12-07T03:32:26;0.73;;;0.30;;
75798;SDS011;65035;44.726;37.764;2022-12-07T03:33:34;1.67;;;0.43;;
75798;SDS011;65035;44.726;37.764;2022-12-07T03:34:48;2.00;;;1.23;;
75798;SDS011;65035;44.726;37.764;2022-12-07T03:36:00;1.17;;;0.22;;
75798;SDS011;65035;44.726;37.764;2022-12-07T03:37:31;1.40;;;0.65;;
75798;SDS011;65035;44.726;37.764;2022-12-07T03:38:45;1.08;;;0.20;;
75798;SDS011;65035;44.726;37.764;2022-12-07T03:40:02;1.20;;;0.20;;
75798;SDS011;65035;44.726;37.764;2022-12-07T03:41:14;1.38;;;0.82;;
75798;SDS011;65035;44.726;37.764;2022-12-07T03:42:25;1.10;;;0.13;;
75798;SDS011;65035;44.726;37.764;2022-12-07T03:43:28;1.60;;;0.17;;
75798;SDS011;65035;44.726;37.764;2022-12-07T03:44:32;1.50;;;0.15;;
75798;SDS011;65035;44.726;37.764;2022-12-07T03:47:12;1.38;;;0.20;;
75798;SDS011;65035;44.726;37.764;2022-12-07T03:48:42;1.23;;;0.30;;
75798;SDS011;65035;44.726;37.764;2022-12-07T03:50:12;1.38;;;0.22;;
75798;SDS011;65035;44.726;37.764;2022-12-07T03:51:36;1.45;;;0.85;;
75798;SDS011;65035;44.726;37.764;2022-12-07T03:52:58;1.48;;;0.17;;
75798;SDS011;65035;44.726;37.764;2022-12-07T03:54:10;1.88;;;1.77;;
75798;SDS011;65035;44.726;37.764;2022-12-07T03:55:34;1.10;;;0.98;;
75798;SDS011;65035;44.726;37.764;2022-12-07T03:56:41;1.80;;;0.60;;
75798;SDS011;65035;44.726;37.764;2022-12-07T03:57:46;1.10;;;0.10;;
75798;SDS011;65035;44.726;37.764;2022-12-07T03:58:54;1.90;;;0.43;;
75798;SDS011;65035;44.726;37.764;2022-12-07T03:59:57;1.40;;;0.25;;
75798;SDS011;65035;44.726;37.764;2022-12-07T04:01:00;1.63;;;0.15;;
75798;SDS011;65035;44.726;37.764;2022-12-07T04:02:04;1.45;;;0.28;;
75798;SDS011;65035;44.726;37.764;2022-12-07T04:03:09;1.23;;;0.28;;
75798;SDS011;65035;44.726;37.764;2022-12-07T04:05:14;1.50;;;0.75;;
75798;SDS011;65035;44.726;37.764;2022-12-07T04:06:17;1.80;;;0.22;;
75798;SDS011;65035;44.726;37.764;2022-12-07T04:07:22;1.88;;;0.13;;
75798;SDS011;65035;44.726;37.764;2022-12-07T04:08:27;2.70;;;0.93;;
75798;SDS011;65035;44.726;37.764;2022-12-07T04:09:30;1.58;;;0.55;;
75798;SDS011;65035;44.726;37.764;2022-12-07T04:10:33;2.38;;;1.15;;
75798;SDS011;65035;44.726;37.764;2022-12-07T04:11:36;1.92;;;0.45;;
75798;SDS011;65035;44.726;37.764;2022-12-07T04:12:39;3.35;;;1.00;;
75798;SDS011;65035;44.726;37.764;2022-12-07T04:13:44;5.60;;;1.55;;
75798;SDS011;65035;44.726;37.764;2022-12-07T04:15:06;16.05;;;4.85;;
75798;SDS011;65035;44.726;37.764;2022-12-07T04:16:11;23.73;;;6.57;;
75798;SDS011;65035;44.726;37.764;2022-12-07T04:17:14;28.50;;;6.78;;
75798;SDS011;65035;44.726;37.764;2022-12-07T04:18:17;23.83;;;6.43;;
75798;SDS011;65035;44.726;37.764;2022-12-07T04:19:21;25.50;;;6.15;;
75798;SDS011;65035;44.726;37.764;2022-12-07T04:20:26;25.20;;;6.40;;
75798;SDS011;65035;44.726;37.764;2022-12-07T04:21:29;20.25;;;5.43;;
75798;SDS011;65035;44.726;37.764;2022-12-07T04:22:32;23.75;;;6.28;;
75798;SDS011;65035;44.726;37.764;2022-12-07T04:23:35;29.15;;;6.78;;
75798;SDS011;65035;44.726;37.764;2022-12-07T04:24:38;27.67;;;6.22;;
75798;SDS011;65035;44.726;37.764;2022-12-07T04:25:43;28.30;;;6.95;;
75798;SDS011;65035;44.726;37.764;2022-12-07T04:26:46;29.33;;;6.65;;
75798;SDS011;65035;44.726;37.764;2022-12-07T04:27:49;28.48;;;6.43;;
75798;SDS011;65035;44.726;37.764;2022-12-07T04:28:52;25.17;;;5.05;;
75798;SDS011;65035;44.726;37.764;2022-12-07T04:29:55;22.73;;;6.25;;
75798;SDS011;65035;44.726;37.764;2022-12-07T04:30:58;24.08;;;6.28;;
75798;SDS011;65035;44.726;37.764;2022-12-07T04:32:01;26.23;;;6.55;;
75798;SDS011;65035;44.726;37.764;2022-12-07T04:33:04;23.52;;;6.50;;
75798;SDS011;65035;44.726;37.764;2022-12-07T04:34:07;25.33;;;5.35;;
75798;SDS011;65035;44.726;37.764;2022-12-07T04:36:14;22.35;;;5.53;;
75798;SDS011;65035;44.726;37.764;2022-12-07T04:37:17;25.63;;;4.97;;
75798;SDS011;65035;44.726;37.764;2022-12-07T04:38:20;21.77;;;4.50;;
75798;SDS011;65035;44.726;37.764;2022-12-07T04:39:24;22.00;;;5.72;;
75798;SDS011;65035;44.726;37.764;2022-12-07T04:40:30;24.17;;;6.18;;
75798;SDS011;65035;44.726;37.764;2022-12-07T04:41:33;24.50;;;5.95;;
75798;SDS011;65035;44.726;37.764;2022-12-07T04:42:36;19.70;;;4.78;;
75798;SDS011;65035;44.726;37.764;2022-12-07T04:43:39;20.88;;;5.95;;
75798;SDS011;65035;44.726;37.764;2022-12-07T04:44:42;21.33;;;5.60;;
75798;SDS011;65035;44.726;37.764;2022-12-07T04:45:47;20.65;;;4.47;;
75798;SDS011;65035;44.726;37.764;2022-12-07T04:46:51;22.73;;;4.70;;
75798;SDS011;65035;44.726;37.764;2022-12-07T04:47:54;20.35;;;5.43;;
75798;SDS011;65035;44.726;37.764;2022-12-07T04:48:57;22.52;;;5.55;;
75798;SDS011;65035;44.726;37.764;2022-12-07T04:50:01;19.13;;;5.13;;
75798;SDS011;65035;44.726;37.764;2022-12-07T04:51:04;20.27;;;5.70;;
75798;SDS011;65035;44.726;37.764;2022-12-07T04:52:07;20.73;;;4.40;;
75798;SDS011;65035;44.726;37.764;2022-12-07T04:54:49;18.95;;;5.00;;
75798;SDS011;65035;44.726;37.764;2022-12-07T04:55:52;18.70;;;4.22;;
75798;SDS011;65035;44.726;37.764;2022-12-07T04:56:55;17.38;;;4.57;;
75798;SDS011;65035;44.726;37.764;2022-12-07T04:57:58;15.88;;;5.03;;
75798;SDS011;65035;44.726;37.764;2022-12-07T04:59:02;19.17;;;4.63;;
75798;SDS011;65035;44.726;37.764;2022-12-07T05:00:05;20.75;;;4.07;;
75798;SDS011;65035;44.726;37.764;2022-12-07T05:01:09;23.83;;;4.95;;
75798;SDS011;65035;44.726;37.764;2022-12-07T05:02:12;20.25;;;5.28;;
75798;SDS011;65035;44.726;37.764;2022-12-07T05:03:15;15.05;;;4.55;;
75798;SDS011;65035;44.726;37.764;2022-12-07T05:04:18;17.48;;;3.95;;
75798;SDS011;65035;44.726;37.764;2022-12-07T05:05:21;17.83;;;4.40;;
75798;SDS011;65035;44.726;37.764;2022-12-07T05:06:24;17.83;;;3.92;;
75798;SDS011;65035;44.726;37.764;2022-12-07T05:07:28;19.63;;;4.38;;
75798;SDS011;65035;44.726;37.764;2022-12-07T05:08:32;16.40;;;4.22;;
75798;SDS011;65035;44.726;37.764;2022-12-07T05:09:36;18.10;;;4.20;;
75798;SDS011;65035;44.726;37.764;2022-12-07T05:10:39;12.60;;;3.88;;
75798;SDS011;65035;44.726;37.764;2022-12-07T05:11:42;13.35;;;4.32;;
75798;SDS011;65035;44.726;37.764;2022-12-07T05:12:45;15.50;;;4.32;;
75798;SDS011;65035;44.726;37.764;2022-12-07T05:13:48;17.63;;;3.83;;
75798;SDS011;65035;44.726;37.764;2022-12-07T05:14:51;15.40;;;4.07;;
75798;SDS011;65035;44.726;37.764;2022-12-07T05:15:54;14.25;;;4.10;;
75798;SDS011;65035;44.726;37.764;2022-12-07T05:16:57;12.60;;;3.80;;
75798;SDS011;65035;44.726;37.764;2022-12-07T05:18:00;12.82;;;3.97;;
75798;SDS011;65035;44.726;37.764;2022-12-07T05:19:03;16.52;;;4.30;;
75798;SDS011;65035;44.726;37.764;2022-12-07T05:21:10;14.70;;;3.72;;
75798;SDS011;65035;44.726;37.764;2022-12-07T05:22:13;16.88;;;3.75;;
75798;SDS011;65035;44.726;37.764;2022-12-07T05:23:17;11.02;;;2.65;;
75798;SDS011;65035;44.726;37.764;2022-12-07T05:25:24;12.10;;;3.50;;
75798;SDS011;65035;44.726;37.764;2022-12-07T05:26:29;12.85;;;3.70;;
75798;SDS011;65035;44.726;37.764;2022-12-07T05:27:31;13.45;;;3.35;;
75798;SDS011;65035;44.726;37.764;2022-12-07T05:28:34;14.90;;;3.50;;
75798;SDS011;65035;44.726;37.764;2022-12-07T05:29:37;14.73;;;3.80;;
75798;SDS011;65035;44.726;37.764;2022-12-07T05:30:40;14.63;;;4.35;;
75798;SDS011;65035;44.726;37.764;2022-12-07T05:31:44;14.60;;;4.22;;
75798;SDS011;65035;44.726;37.764;2022-12-07T05:32:47;15.32;;;3.67;;
75798;SDS011;65035;44.726;37.764;2022-12-07T05:33:50;13.73;;;3.67;;
75798;SDS011;65035;44.726;37.764;2022-12-07T05:34:53;10.95;;;3.83;;
75798;SDS011;65035;44.726;37.764;2022-12-07T05:35:56;11.90;;;2.70;;
75798;SDS011;65035;44.726;37.764;2022-12-07T05:37:55;12.07;;;3.25;;
75798;SDS011;65035;44.726;37.764;2022-12-07T05:38:59;11.57;;;3.25;;
75798;SDS011;65035;44.726;37.764;2022-12-07T05:40:03;13.40;;;3.25;;
75798;SDS011;65035;44.726;37.764;2022-12-07T05:41:09;11.45;;;3.47;;
75798;SDS011;65035;44.726;37.764;2022-12-07T05:42:36;10.10;;;3.03;;
75798;SDS011;65035;44.726;37.764;2022-12-07T05:43:39;15.55;;;4.22;;
75798;SDS011;65035;44.726;37.764;2022-12-07T05:44:43;12.00;;;3.95;;
75798;SDS011;65035;44.726;37.764;2022-12-07T05:45:47;12.57;;;4.18;;
75798;SDS011;65035;44.726;37.764;2022-12-07T05:46:50;10.88;;;3.00;;
75798;SDS011;65035;44.726;37.764;2022-12-07T05:47:53;11.43;;;3.47;;
75798;SDS011;65035;44.726;37.764;2022-12-07T05:48:56;13.55;;;2.95;;
75798;SDS011;65035;44.726;37.764;2022-12-07T05:49:59;11.45;;;3.65;;
75798;SDS011;65035;44.726;37.764;2022-12-07T05:51:04;9.40;;;2.85;;
75798;SDS011;65035;44.726;37.764;2022-12-07T05:52:55;12.25;;;2.67;;
75798;SDS011;65035;44.726;37.764;2022-12-07T05:53:58;10.90;;;2.58;;
75798;SDS011;65035;44.726;37.764;2022-12-07T05:55:49;13.27;;;4.50;;
75798;SDS011;65035;44.726;37.764;2022-12-07T05:56:54;11.68;;;4.30;;
75798;SDS011;65035;44.726;37.764;2022-12-07T05:57:57;9.88;;;2.75;;
75798;SDS011;65035;44.726;37.764;2022-12-07T05:59:19;12.70;;;3.00;;
75798;SDS011;65035;44.726;37.764;2022-12-07T06:00:26;9.43;;;4.50;;
75798;SDS011;65035;44.726;37.764;2022-12-07T06:01:30;11.20;;;4.55;;
75798;SDS011;65035;44.726;37.764;2022-12-07T06:02:33;10.63;;;4.05;;
75798;SDS011;65035;44.726;37.764;2022-12-07T06:03:36;11.25;;;3.95;;
75798;SDS011;65035;44.726;37.764;2022-12-07T06:04:40;12.60;;;4.93;;
75798;SDS011;65035;44.726;37.764;2022-12-07T06:05:47;12.52;;;4.35;;
75798;SDS011;65035;44.726;37.764;2022-12-07T06:06:51;10.45;;;4.78;;
75798;SDS011;65035;44.726;37.764;2022-12-07T06:07:54;9.88;;;4.25;;
75798;SDS011;65035;44.726;37.764;2022-12-07T06:08:57;7.45;;;4.38;;
75798;SDS011;65035;44.726;37.764;2022-12-07T06:10:00;11.95;;;4.55;;
75798;SDS011;65035;44.726;37.764;2022-12-07T06:11:03;8.82;;;4.95;;
75798;SDS011;65035;44.726;37.764;2022-12-07T06:12:24;9.93;;;3.83;;
75798;SDS011;65035;44.726;37.764;2022-12-07T06:14:24;10.23;;;3.15;;
75798;SDS011;65035;44.726;37.764;2022-12-07T06:15:27;11.90;;;2.45;;
75798;SDS011;65035;44.726;37.764;2022-12-07T06:16:30;9.07;;;2.10;;
75798;SDS011;65035;44.726;37.764;2022-12-07T06:17:33;10.07;;;2.42;;
75798;SDS011;65035;44.726;37.764;2022-12-07T06:18:36;8.52;;;2.38;;
75798;SDS011;65035;44.726;37.764;2022-12-07T06:19:39;10.90;;;2.85;;
75798;SDS011;65035;44.726;37.764;2022-12-07T06:20:42;7.10;;;1.80;;
75798;SDS011;65035;44.726;37.764;2022-12-07T06:21:45;12.52;;;2.35;;
75798;SDS011;65035;44.726;37.764;2022-12-07T06:22:48;7.57;;;1.95;;
75798;SDS011;65035;44.726;37.764;2022-12-07T06:23:53;8.55;;;1.98;;
75798;SDS011;65035;44.726;37.764;2022-12-07T06:24:56;9.18;;;2.85;;
75798;SDS011;65035;44.726;37.764;2022-12-07T06:25:59;8.80;;;2.38;;
75798;SDS011;65035;44.726;37.764;2022-12-07T06:27:02;7.35;;;2.20;;
75798;SDS011;65035;44.726;37.764;2022-12-07T06:28:05;8.07;;;2.10;;
75798;SDS011;65035;44.726;37.764;2022-12-07T06:29:08;9.93;;;2.33;;
75798;SDS011;65035;44.726;37.764;2022-12-07T06:30:11;8.38;;;2.25;;
75798;SDS011;65035;44.726;37.764;2022-12-07T06:31:15;7.10;;;2.00;;
75798;SDS011;65035;44.726;37.764;2022-12-07T06:32:18;7.93;;;2.28;;
75798;SDS011;65035;44.726;37.764;2022-12-07T06:33:21;9.52;;;2.13;;
75798;SDS011;65035;44.726;37.764;2022-12-07T06:34:27;10.85;;;1.92;;
75798;SDS011;65035;44.726;37.764;2022-12-07T06:35:32;8.10;;;1.85;;
75798;SDS011;65035;44.726;37.764;2022-12-07T06:36:36;7.32;;;2.20;;
75798;SDS011;65035;44.726;37.764;2022-12-07T06:37:39;6.57;;;1.63;;
75798;SDS011;65035;44.726;37.764;2022-12-07T06:38:42;8.98;;;2.75;;
75798;SDS011;65035;44.726;37.764;2022-12-07T06:39:45;7.75;;;2.17;;
75798;SDS011;65035;44.726;37.764;2022-12-07T06:40:48;7.15;;;1.77;;
75798;SDS011;65035;44.726;37.764;2022-12-07T06:41:51;6.95;;;1.85;;
75798;SDS011;65035;44.726;37.764;2022-12-07T06:42:54;10.38;;;2.55;;
75798;SDS011;65035;44.726;37.764;2022-12-07T06:43:57;7.32;;;1.85;;
75798;SDS011;65035;44.726;37.764;2022-12-07T06:45:55;8.52;;;3.78;;
75798;SDS011;65035;44.726;37.764;2022-12-07T06:46:57;9.00;;;3.22;;
75798;SDS011;65035;44.726;37.764;2022-12-07T06:48:13;5.75;;;2.90;;
75798;SDS011;65035;44.726;37.764;2022-12-07T06:49:16;7.93;;;1.80;;
75798;SDS011;65035;44.726;37.764;2022-12-07T06:50:19;8.00;;;3.65;;
75798;SDS011;65035;44.726;37.764;2022-12-07T06:51:22;7.38;;;4.13;;
75798;SDS011;65035;44.726;37.764;2022-12-07T06:52:25;10.15;;;3.20;;
75798;SDS011;65035;44.726;37.764;2022-12-07T06:53:28;6.15;;;1.70;;
75798;SDS011;65035;44.726;37.764;2022-12-07T06:54:31;6.63;;;3.17;;
75798;SDS011;65035;44.726;37.764;2022-12-07T06:55:34;7.63;;;1.70;;
75798;SDS011;65035;44.726;37.764;2022-12-07T06:56:37;7.20;;;2.03;;
75798;SDS011;65035;44.726;37.764;2022-12-07T06:57:40;7.43;;;1.90;;
75798;SDS011;65035;44.726;37.764;2022-12-07T06:58:43;6.80;;;3.63;;
75798;SDS011;65035;44.726;37.764;2022-12-07T06:59:46;7.85;;;3.15;;
75798;SDS011;65035;44.726;37.764;2022-12-07T07:00:49;5.75;;;3.30;;
75798;SDS011;65035;44.726;37.764;2022-12-07T07:01:52;8.35;;;1.90;;
75798;SDS011;65035;44.726;37.764;2022-12-07T07:02:55;7.53;;;2.10;;
75798;SDS011;65035;44.726;37.764;2022-12-07T07:03:58;7.35;;;2.70;;
75798;SDS011;65035;44.726;37.764;2022-12-07T07:06:05;6.80;;;2.08;;
75798;SDS011;65035;44.726;37.764;2022-12-07T07:07:09;6.15;;;1.58;;
75798;SDS011;65035;44.726;37.764;2022-12-07T07:08:12;7.25;;;4.05;;
75798;SDS011;65035;44.726;37.764;2022-12-07T07:09:23;7.05;;;3.20;;
75798;SDS011;65035;44.726;37.764;2022-12-07T07:10:26;7.30;;;1.50;;
75798;SDS011;65035;44.726;37.764;2022-12-07T07:11:31;6.90;;;1.35;;
75798;SDS011;65035;44.726;37.764;2022-12-07T07:12:34;5.43;;;1.00;;